This is the latest recevied weather packets stored in our database for station/object N7QNM-13. If no packets are shown the sender has not sent any weather packets the latest 10 day(s).
| Time | Temp. | Humidity | Pressure | Rain* | Wind** | Luminosity | Snow |
|---|---|---|---|---|---|---|---|
| 1777774266 | 28.89° C | 35% | 1010 hPa | 0 mm | - | 69 W/m² | - |
| 1777773066 | 28.89° C | 33% | 1009.9 hPa | 0 mm | - | 122 W/m² | - |
| 1777765247 | 28.33° C | 33% | 1010.1 hPa | 0 mm | - | 347 W/m² | - |
| 1777764648 | 28.89° C | 32% | 1010.2 hPa | 0 mm | - | 281 W/m² | - |
| 1777763448 | 28.89° C | 33% | 1010.3 hPa | 0 mm | - | 470 W/m² | - |
| 1777759849 | 28.89° C | 35% | 1011.2 hPa | 0 mm | - | 715 W/m² | - |
| 1777756250 | 27.22° C | 37% | 1011.7 hPa | 0 mm | - | 638 W/m² | - |
| 1777752650 | 27.22° C | 37% | 1012.4 hPa | 0 mm | - | 691 W/m² | - |
| 1777751450 | 27.22° C | 36% | 1012.5 hPa | 0 mm | - | 762 W/m² | - |
| 1777747851 | 25° C | 42% | 1013.2 hPa | 0 mm | - | 815 W/m² | - |
| 1777747252 | 25° C | 42% | 1013.1 hPa | 0 mm | - | 481 W/m² | - |
| 1777745472 | 25.56° C | 39% | 1013.2 hPa | 0 mm | - | 552 W/m² | - |
| 1777744852 | 25° C | 41% | 1013.4 hPa | 0 mm | - | 773 W/m² | - |
| 1777743652 | 24.44° C | 41% | 1013.5 hPa | 0 mm | - | 747 W/m² | - |
| 1777743052 | 23.89° C | 42% | 1013.5 hPa | 0 mm | - | 719 W/m² | - |
| 1777737653 | 20.56° C | 52% | 1013.4 hPa | 0 mm | - | 393 W/m² | - |
| 1777736454 | 20.56° C | 52% | 1013.4 hPa | 0 mm | - | 389 W/m² | - |
| 1777734054 | 16.11° C | 69% | 1013.4 hPa | 0 mm | - | 268 W/m² | - |
| 1777733474 | 15° C | 73% | 1013.5 hPa | 0 mm | - | 240 W/m² | - |
| 1777732854 | 13.89° C | 77% | 1013.5 hPa | 0 mm | - | 208 W/m² | - |
| 1777731056 | 12.22° C | 82% | 1013.3 hPa | 0 mm | - | 102 W/m² | - |
| 1777728057 | 11.11° C | 81% | 1013 hPa | 0 mm | - | 25 W/m² | - |
| 1777723257 | 12.22° C | 78% | 1012.6 hPa | 0 mm | - | 0 W/m² | - |
| 1777722657 | 11.67° C | 77% | 1012.6 hPa | 0 mm | - | 0 W/m² | - |
| 1777722057 | 11.67° C | 76% | 1012.6 hPa | 0 mm | - | 0 W/m² | - |
* Rain latest hour (hover to see other rain measurements)
** Current wind speed in m/s (hover to see current wind gust speed)